createdAt,value
2022-11-08T00:02:10.241Z,14.50
2022-11-08T00:04:39.589Z,14.52
2022-11-08T00:07:24.707Z,14.47
2022-11-08T00:10:09.900Z,14.51
2022-11-08T00:12:55.109Z,14.50
2022-11-08T00:15:22.813Z,14.50
2022-11-08T00:17:50.578Z,14.55
2022-11-08T00:20:19.725Z,14.53
2022-11-08T00:22:47.448Z,14.60
2022-11-08T00:25:15.197Z,14.46
2022-11-08T00:27:42.928Z,14.53
2022-11-08T00:30:11.393Z,14.52
2022-11-08T00:32:39.106Z,14.53
2022-11-08T00:35:08.069Z,14.58
2022-11-08T00:37:37.137Z,14.54
2022-11-08T00:40:05.413Z,14.59
2022-11-08T00:42:33.131Z,14.61
2022-11-08T00:45:00.832Z,14.59
2022-11-08T00:47:28.557Z,14.57
2022-11-08T00:49:56.379Z,14.59
2022-11-08T00:52:24.104Z,14.60
2022-11-08T00:54:53.199Z,14.55
2022-11-08T00:57:27.543Z,14.63
2022-11-08T01:00:10.711Z,14.59
2022-11-08T01:02:38.552Z,14.57
2022-11-08T01:05:06.990Z,14.62
2022-11-08T01:07:34.746Z,14.58
2022-11-08T01:10:03.985Z,14.58
2022-11-08T01:12:31.844Z,14.52
2022-11-08T01:14:59.576Z,14.55
2022-11-08T01:17:27.367Z,14.42
2022-11-08T01:19:55.109Z,14.38
2022-11-08T01:22:22.842Z,14.50
2022-11-08T01:24:50.563Z,14.53
2022-11-08T01:27:19.649Z,14.39
2022-11-08T01:29:47.370Z,14.41
2022-11-08T01:32:15.112Z,14.36
2022-11-08T01:34:42.815Z,14.37
2022-11-08T01:37:10.633Z,14.33
2022-11-08T01:39:38.348Z,14.30
2022-11-08T01:42:06.341Z,14.34
2022-11-08T01:44:35.441Z,14.26
2022-11-08T01:47:03.177Z,14.27
2022-11-08T01:49:37.975Z,14.31
2022-11-08T01:52:11.808Z,14.29
2022-11-08T01:54:43.798Z,14.33
2022-11-08T01:57:14.729Z,14.29
2022-11-08T01:59:45.645Z,14.26
2022-11-08T02:02:13.717Z,14.35
2022-11-08T02:04:42.332Z,14.18
2022-11-08T02:07:10.531Z,14.17
2022-11-08T02:09:39.823Z,14.14
2022-11-08T02:12:08.890Z,14.04
2022-11-08T02:14:37.574Z,14.11
2022-11-08T02:17:06.795Z,13.96
2022-11-08T02:19:39.507Z,13.95
2022-11-08T02:22:14.057Z,13.97
2022-11-08T02:24:43.216Z,13.94
2022-11-08T02:27:11.854Z,13.86
2022-11-08T02:29:39.615Z,13.88
2022-11-08T02:32:07.359Z,13.92
2022-11-08T02:34:37.558Z,13.82
2022-11-08T02:37:06.645Z,13.85
2022-11-08T02:39:34.393Z,13.82
2022-11-08T02:42:03.917Z,13.90
2022-11-08T02:44:31.636Z,13.82
2022-11-08T02:46:59.371Z,13.79
2022-11-08T02:49:27.085Z,13.79
2022-11-08T02:51:55.078Z,13.73
2022-11-08T02:54:23.049Z,13.67
2022-11-08T02:56:50.781Z,13.70
2022-11-08T02:59:19.898Z,13.65
2022-11-08T03:01:47.753Z,13.65
2022-11-08T03:04:15.787Z,13.67
2022-11-08T03:06:43.550Z,13.72
2022-11-08T03:09:11.893Z,13.78
2022-11-08T03:11:41.857Z,13.83
2022-11-08T03:14:09.759Z,13.88
2022-11-08T03:16:38.828Z,13.91
2022-11-08T03:19:06.541Z,13.80
2022-11-08T03:21:35.812Z,13.77
2022-11-08T03:24:04.198Z,13.81
2022-11-08T03:26:32.564Z,13.75
2022-11-08T03:29:00.332Z,13.76
2022-11-08T03:31:28.132Z,13.70
2022-11-08T03:33:57.289Z,13.79
2022-11-08T03:36:25.372Z,13.73
2022-11-08T03:38:53.245Z,13.80
2022-11-08T03:41:20.976Z,13.72
2022-11-08T03:43:48.711Z,13.68
2022-11-08T03:46:16.400Z,13.65
2022-11-08T03:48:44.135Z,13.67
2022-11-08T03:51:13.207Z,13.66
2022-11-08T03:53:41.399Z,13.63
2022-11-08T03:56:09.508Z,13.64
2022-11-08T03:58:39.003Z,13.59
2022-11-08T04:01:07.535Z,13.54
2022-11-08T04:03:35.325Z,13.54
2022-11-08T04:06:03.345Z,13.54
2022-11-08T04:08:34.591Z,13.51
2022-11-08T04:11:22.327Z,13.62
2022-11-08T04:14:07.755Z,13.59
2022-11-08T04:16:35.783Z,13.58
2022-11-08T04:19:21.220Z,13.68
2022-11-08T04:21:50.802Z,13.65
2022-11-08T04:24:19.948Z,13.68
2022-11-08T04:26:47.659Z,13.47
2022-11-08T04:29:15.530Z,13.49
2022-11-08T04:31:43.294Z,13.51
2022-11-08T04:34:11.268Z,13.37
2022-11-08T04:36:39.084Z,13.48
2022-11-08T04:39:06.941Z,13.37
2022-11-08T04:41:36.038Z,13.45
2022-11-08T04:44:04.520Z,13.46
2022-11-08T04:46:32.246Z,13.32
2022-11-08T04:49:01.133Z,13.31
2022-11-08T04:51:31.782Z,13.28
2022-11-08T04:54:01.137Z,13.23
2022-11-08T04:56:31.428Z,13.30
2022-11-08T04:59:01.717Z,13.24
2022-11-08T05:01:32.076Z,13.25
2022-11-08T05:03:59.991Z,13.30
2022-11-08T05:06:30.005Z,13.20
2022-11-08T05:08:58.943Z,13.16
2022-11-08T05:11:28.143Z,13.16
2022-11-08T05:13:56.422Z,13.15
2022-11-08T05:16:27.162Z,13.13
2022-11-08T05:18:55.023Z,12.99
2022-11-08T05:21:41.781Z,13.02
2022-11-08T05:24:11.872Z,12.99
2022-11-08T05:26:41.971Z,12.97
2022-11-08T05:29:10.032Z,13.04
2022-11-08T05:31:39.251Z,13.01
2022-11-08T05:34:07.544Z,12.98
2022-11-08T05:36:35.528Z,13.01
2022-11-08T05:39:04.653Z,12.97
2022-11-08T05:41:32.442Z,12.98
2022-11-08T05:44:00.127Z,12.99
2022-11-08T05:46:27.874Z,13.00
2022-11-08T05:48:57.474Z,13.03
2022-11-08T05:51:25.179Z,12.93
2022-11-08T05:53:53.029Z,12.91
2022-11-08T05:56:20.915Z,12.96
2022-11-08T05:58:48.632Z,12.95
2022-11-08T06:01:17.655Z,12.85
2022-11-08T06:03:46.800Z,12.87
2022-11-08T06:06:17.454Z,12.78
2022-11-08T06:08:50.029Z,12.82
2022-11-08T06:11:21.593Z,12.87
2022-11-08T06:13:49.729Z,12.84
2022-11-08T06:16:18.854Z,12.79
2022-11-08T06:18:46.903Z,12.83
2022-11-08T06:21:17.628Z,12.81
2022-11-08T06:23:45.903Z,12.84
2022-11-08T06:26:14.371Z,12.81
2022-11-08T06:28:42.408Z,12.73
2022-11-08T06:31:10.158Z,12.72
2022-11-08T06:33:38.727Z,12.79
2022-11-08T06:36:07.907Z,12.70
2022-11-08T06:38:37.118Z,12.79
2022-11-08T06:41:04.984Z,12.80
2022-11-08T06:43:32.759Z,12.76
2022-11-08T06:46:06.073Z,12.81
2022-11-08T06:48:36.064Z,12.72
2022-11-08T06:51:05.064Z,12.73
2022-11-08T06:53:33.136Z,12.73
2022-11-08T06:56:06.469Z,12.81
2022-11-08T06:58:34.306Z,12.81
2022-11-08T07:01:04.742Z,12.79
2022-11-08T07:03:32.524Z,12.78
2022-11-08T07:06:02.976Z,12.76
2022-11-08T07:08:30.901Z,12.82
2022-11-08T07:10:58.898Z,12.89
2022-11-08T07:13:27.991Z,12.80
2022-11-08T07:15:58.726Z,12.85
2022-11-08T07:18:26.688Z,12.96
2022-11-08T07:20:54.579Z,12.94
2022-11-08T07:23:22.878Z,12.83
2022-11-08T07:25:51.107Z,12.96
2022-11-08T07:28:20.302Z,12.91
2022-11-08T07:30:50.232Z,12.74
2022-11-08T07:33:18.708Z,12.72
2022-11-08T07:35:47.654Z,12.76
2022-11-08T07:38:15.456Z,12.92
2022-11-08T07:40:43.421Z,12.85
2022-11-08T07:43:12.917Z,12.93
2022-11-08T07:45:41.373Z,13.00
2022-11-08T07:48:13.102Z,13.10
2022-11-08T07:50:41.985Z,13.02
2022-11-08T07:53:09.850Z,13.09
2022-11-08T07:55:38.081Z,13.12
2022-11-08T07:58:06.631Z,13.18
2022-11-08T08:00:36.251Z,13.19
2022-11-08T08:03:05.734Z,13.11
2022-11-08T08:05:36.605Z,13.11
2022-11-08T08:08:05.063Z,13.15
2022-11-08T08:10:32.995Z,13.23
2022-11-08T08:13:02.989Z,13.28
2022-11-08T08:15:30.802Z,13.36
2022-11-08T08:18:01.002Z,13.38
2022-11-08T08:20:31.916Z,13.40
2022-11-08T08:23:01.655Z,13.30
2022-11-08T08:25:31.407Z,13.51
2022-11-08T08:28:00.817Z,13.54
2022-11-08T08:31:17.531Z,13.69
2022-11-08T08:35:12.665Z,13.82
2022-11-08T08:37:40.192Z,13.78
2022-11-08T08:40:08.925Z,13.80
2022-11-08T08:42:36.849Z,13.94
2022-11-08T08:45:04.717Z,13.96
2022-11-08T08:47:32.229Z,13.94
2022-11-08T08:49:59.701Z,14.07
2022-11-08T08:52:28.507Z,14.09
2022-11-08T08:54:56.010Z,14.11
2022-11-08T08:57:23.521Z,14.01
2022-11-08T09:02:41.314Z,14.05
2022-11-08T09:05:11.113Z,14.10
2022-11-08T09:07:39.966Z,13.94
2022-11-08T09:10:09.327Z,13.96
2022-11-08T09:12:37.150Z,13.95
2022-11-08T09:15:05.949Z,14.13
2022-11-08T09:17:33.456Z,14.10
2022-11-08T09:20:01.149Z,14.05
2022-11-08T09:22:28.630Z,14.12
2022-11-08T09:24:57.492Z,14.19
2022-11-08T09:27:24.964Z,14.18
2022-11-08T09:29:52.500Z,14.20
2022-11-08T09:32:33.324Z,14.30
2022-11-08T09:35:08.439Z,14.34
2022-11-08T09:37:35.943Z,14.36
2022-11-08T09:40:05.231Z,14.30
2022-11-08T09:42:43.655Z,14.28
2022-11-08T09:45:21.290Z,14.28
2022-11-08T09:47:53.029Z,14.44
2022-11-08T09:50:23.074Z,14.40
2022-11-08T09:52:53.864Z,14.34
2022-11-08T09:55:27.699Z,14.37
2022-11-08T09:58:03.960Z,14.37
2022-11-08T10:00:39.648Z,14.46
2022-11-08T10:03:07.287Z,14.47
2022-11-08T10:05:40.358Z,14.50
2022-11-08T10:08:12.297Z,14.50
2022-11-08T10:10:58.479Z,14.51
2022-11-08T10:13:32.050Z,14.51
2022-11-08T10:16:03.586Z,14.53
2022-11-08T10:18:49.532Z,14.47
2022-11-08T10:21:24.763Z,14.53
2022-11-08T10:23:57.604Z,14.54
2022-11-08T10:26:30.297Z,14.62
2022-11-08T10:29:02.993Z,14.62
2022-11-08T10:31:34.081Z,14.68
2022-11-08T10:34:03.213Z,14.66
2022-11-08T10:36:36.176Z,14.70
2022-11-08T10:39:05.821Z,14.69
2022-11-08T10:41:44.479Z,14.76
2022-11-08T10:44:15.248Z,14.82
2022-11-08T10:46:45.304Z,14.82
2022-11-08T10:49:19.393Z,14.91
2022-11-08T10:51:48.222Z,14.91
2022-11-08T10:54:44.490Z,14.98
2022-11-08T10:57:15.210Z,15.05
2022-11-08T10:59:43.520Z,15.12
2022-11-08T11:02:24.320Z,15.18
2022-11-08T11:04:52.271Z,15.18
2022-11-08T11:07:30.911Z,15.24
2022-11-08T11:09:58.503Z,15.29
2022-11-08T11:12:27.303Z,15.34
2022-11-08T11:14:59.104Z,15.36
2022-11-08T11:17:35.572Z,15.36
2022-11-08T11:20:07.251Z,15.48
2022-11-08T11:22:35.470Z,15.44
2022-11-08T11:25:07.554Z,15.47
2022-11-08T11:27:38.512Z,15.48
2022-11-08T11:30:24.921Z,15.49
2022-11-08T11:33:01.552Z,15.56
2022-11-08T11:35:34.754Z,15.50
2022-11-08T11:38:05.323Z,15.55
2022-11-08T11:40:37.139Z,15.49
2022-11-08T11:43:11.276Z,15.47
2022-11-08T11:45:44.252Z,15.47
2022-11-08T11:48:17.960Z,15.49
2022-11-08T11:50:47.087Z,15.56
2022-11-08T11:53:17.694Z,15.53
2022-11-08T11:56:10.030Z,15.60
2022-11-08T11:59:02.635Z,15.66
2022-11-08T12:01:48.084Z,15.60
2022-11-08T12:04:51.136Z,15.64
2022-11-08T12:07:20.451Z,15.66
2022-11-08T12:09:55.065Z,15.71
2022-11-08T12:12:33.007Z,15.66
2022-11-08T12:15:05.371Z,15.76
2022-11-08T12:17:49.108Z,15.73
2022-11-08T12:20:36.041Z,15.74
2022-11-08T12:23:14.704Z,15.75
2022-11-08T12:25:49.111Z,15.76
2022-11-08T12:28:32.604Z,15.69
2022-11-08T12:31:09.638Z,15.79
2022-11-08T12:33:44.500Z,15.78
2022-11-08T12:36:17.223Z,15.83
2022-11-08T12:38:56.544Z,15.80
2022-11-08T12:41:29.569Z,15.79
2022-11-08T12:44:26.796Z,15.74
2022-11-08T12:47:06.501Z,15.76
2022-11-08T12:49:40.320Z,15.78
2022-11-08T12:52:15.990Z,15.74
2022-11-08T12:54:46.440Z,15.80
2022-11-08T12:57:16.483Z,15.79
2022-11-08T12:59:46.732Z,15.77
2022-11-08T13:02:19.582Z,15.72
2022-11-08T13:04:59.127Z,15.75
2022-11-08T13:07:35.068Z,15.72
2022-11-08T13:10:07.825Z,15.74
2022-11-08T13:12:44.919Z,15.77
2022-11-08T13:15:20.522Z,15.79
2022-11-08T13:18:30.772Z,15.77
2022-11-08T13:20:58.282Z,15.79
2022-11-08T13:23:29.286Z,15.76
2022-11-08T13:26:12.651Z,15.69
2022-11-08T13:28:44.794Z,15.76
2022-11-08T13:31:21.905Z,15.77
2022-11-08T13:34:02.119Z,15.67
2022-11-08T13:36:36.755Z,15.69
2022-11-08T13:39:19.956Z,15.75
2022-11-08T13:42:05.376Z,15.73
2022-11-08T13:44:58.827Z,15.70
2022-11-08T13:47:53.223Z,15.72
2022-11-08T13:50:47.651Z,15.74
2022-11-08T13:53:45.696Z,15.72
2022-11-08T13:56:25.245Z,15.72
2022-11-08T13:58:52.769Z,15.70
2022-11-08T14:01:57.800Z,15.69
2022-11-08T14:04:26.419Z,15.70
2022-11-08T14:07:03.466Z,15.68
2022-11-08T14:09:37.995Z,15.68
2022-11-08T14:12:09.387Z,15.69
2022-11-08T14:14:45.348Z,15.70
2022-11-08T14:17:35.567Z,15.68
2022-11-08T14:20:19.791Z,15.66
2022-11-08T14:22:50.378Z,15.66
2022-11-08T14:25:23.430Z,15.64
2022-11-08T14:27:50.944Z,15.60
2022-11-08T14:30:20.664Z,15.66
2022-11-08T14:32:48.375Z,15.60
2022-11-08T14:35:22.108Z,15.61
2022-11-08T14:37:51.200Z,15.59
2022-11-08T14:40:20.296Z,15.55
2022-11-08T14:42:47.964Z,15.52
2022-11-08T14:45:16.396Z,15.56
2022-11-08T14:47:44.643Z,15.51
2022-11-08T14:50:19.543Z,15.49
2022-11-08T14:52:47.407Z,15.51
2022-11-08T14:55:19.741Z,15.46
2022-11-08T14:57:47.665Z,15.40
2022-11-08T15:00:17.350Z,15.46
2022-11-08T15:02:47.725Z,15.42
2022-11-08T15:05:31.545Z,15.43
2022-11-08T15:07:59.587Z,15.42
2022-11-08T15:10:28.857Z,15.40
2022-11-08T15:12:56.707Z,15.35
2022-11-08T15:15:26.868Z,15.33
2022-11-08T15:18:12.517Z,15.31
2022-11-08T15:20:40.790Z,15.30
2022-11-08T15:23:25.440Z,15.34
2022-11-08T15:25:58.617Z,15.29
2022-11-08T15:28:32.605Z,15.31
2022-11-08T15:31:01.139Z,15.27
2022-11-08T15:33:33.413Z,15.29
2022-11-08T15:36:01.395Z,15.22
2022-11-08T15:38:31.627Z,15.22
2022-11-08T15:41:01.916Z,15.23
2022-11-08T15:43:41.099Z,15.23
2022-11-08T15:46:27.751Z,15.21
2022-11-08T15:48:59.433Z,15.20
2022-11-08T15:51:26.963Z,15.22
2022-11-08T15:53:54.499Z,15.30
2022-11-08T15:56:23.303Z,15.21
2022-11-08T15:58:50.788Z,15.22
2022-11-08T16:01:20.559Z,15.22
2022-11-08T16:03:48.419Z,15.24
2022-11-08T16:06:16.057Z,15.22
2022-11-08T16:08:43.524Z,15.24
2022-11-08T16:11:16.396Z,15.24
2022-11-08T16:13:45.220Z,15.23
2022-11-08T16:16:14.556Z,15.21
2022-11-08T16:18:42.413Z,15.26
2022-11-08T16:21:11.028Z,15.23
2022-11-08T16:23:38.683Z,15.22
2022-11-08T16:26:07.272Z,15.24
2022-11-08T16:28:37.957Z,15.22
2022-11-08T16:31:08.580Z,15.26
2022-11-08T16:33:37.008Z,15.24
2022-11-08T16:36:12.543Z,15.19
2022-11-08T16:38:40.044Z,15.21
2022-11-08T16:41:07.567Z,15.19
2022-11-08T16:43:35.076Z,15.25
2022-11-08T16:46:07.347Z,15.16
2022-11-08T16:48:36.318Z,15.21
2022-11-08T16:51:05.829Z,15.16
2022-11-08T16:53:33.299Z,15.22
2022-11-08T16:56:01.084Z,15.18
2022-11-08T16:58:28.815Z,15.18
2022-11-08T17:00:56.978Z,15.13
2022-11-08T17:03:29.401Z,15.07
2022-11-08T17:05:57.058Z,15.11
2022-11-08T17:08:25.597Z,15.13
2022-11-08T17:10:53.198Z,15.10
2022-11-08T17:13:21.130Z,15.09
2022-11-08T17:15:49.552Z,15.03
2022-11-08T17:18:18.857Z,15.04
2022-11-08T17:20:48.415Z,15.10
2022-11-08T17:23:16.224Z,15.03
2022-11-08T17:25:44.424Z,15.11
2022-11-08T17:28:12.936Z,15.11
2022-11-08T17:30:43.983Z,15.21
2022-11-08T17:33:13.534Z,15.14
2022-11-08T17:35:43.890Z,15.19
2022-11-08T17:38:13.424Z,15.23
2022-11-08T17:40:42.054Z,15.25
2022-11-08T17:43:09.572Z,15.21
2022-11-08T17:45:37.182Z,15.27
2022-11-08T17:48:04.829Z,15.28
2022-11-08T17:50:32.305Z,15.21
2022-11-08T17:52:59.804Z,15.19
2022-11-08T17:55:28.644Z,15.15
2022-11-08T17:57:56.188Z,15.21
2022-11-08T18:00:23.988Z,15.14
2022-11-08T18:02:51.515Z,15.12
2022-11-08T18:05:19.000Z,15.17
2022-11-08T18:07:46.514Z,15.15
2022-11-08T18:10:14.026Z,15.17
2022-11-08T18:12:43.195Z,15.19
2022-11-08T18:15:11.520Z,15.12
2022-11-08T18:17:38.998Z,15.14
2022-11-08T18:20:07.457Z,15.04
2022-11-08T18:22:35.091Z,15.04
2022-11-08T18:25:02.988Z,15.03
2022-11-08T18:27:30.580Z,15.07
2022-11-08T18:29:59.406Z,15.02
2022-11-08T18:32:26.895Z,14.98
2022-11-08T18:34:54.503Z,14.98
2022-11-08T18:37:22.024Z,15.01
2022-11-08T18:39:49.513Z,15.03
2022-11-08T18:42:16.986Z,15.03
2022-11-08T18:44:44.475Z,14.96
2022-11-08T18:47:13.312Z,15.04
2022-11-08T18:49:40.822Z,14.98
2022-11-08T18:52:08.427Z,14.93
2022-11-08T18:54:35.927Z,14.93
2022-11-08T18:57:03.862Z,14.95
2022-11-08T18:59:31.371Z,14.91
2022-11-08T19:01:59.010Z,14.87
2022-11-08T19:04:28.027Z,14.95
2022-11-08T19:06:55.601Z,14.93
2022-11-08T19:09:23.246Z,14.91
2022-11-08T19:11:50.723Z,14.90
2022-11-08T19:14:19.104Z,14.97
2022-11-08T19:16:46.632Z,15.00
2022-11-08T19:19:14.123Z,15.01
2022-11-08T19:21:43.613Z,14.96
2022-11-08T19:24:11.140Z,14.97
2022-11-08T19:26:39.349Z,14.96
2022-11-08T19:29:07.099Z,14.95
2022-11-08T19:31:36.267Z,15.00
2022-11-08T19:34:04.136Z,14.94
2022-11-08T19:36:33.107Z,14.91
2022-11-08T19:39:01.932Z,14.97
2022-11-08T19:41:29.735Z,14.95
2022-11-08T19:43:57.236Z,14.90
2022-11-08T19:46:26.711Z,15.01
2022-11-08T19:48:54.367Z,14.93
2022-11-08T19:51:23.659Z,15.02
2022-11-08T19:53:51.674Z,15.00
2022-11-08T19:56:29.225Z,15.00
2022-11-08T19:59:05.468Z,15.02
2022-11-08T20:01:36.093Z,15.03
2022-11-08T20:04:05.315Z,15.01
2022-11-08T20:06:33.351Z,15.04
2022-11-08T20:09:03.097Z,15.04
2022-11-08T20:11:33.439Z,15.01
2022-11-08T20:14:03.507Z,15.03
2022-11-08T20:16:33.051Z,15.09
2022-11-08T20:19:03.027Z,15.06
2022-11-08T20:21:31.033Z,15.10
2022-11-08T20:23:58.683Z,15.06
2022-11-08T20:26:27.637Z,15.01
2022-11-08T20:28:57.316Z,15.02
2022-11-08T20:31:25.877Z,15.06
2022-11-08T20:33:54.401Z,14.98
2022-11-08T20:36:24.447Z,15.11
2022-11-08T20:38:55.716Z,15.09
2022-11-08T20:41:23.656Z,15.07
2022-11-08T20:43:51.123Z,15.07
2022-11-08T20:46:21.456Z,15.11
2022-11-08T20:48:51.086Z,15.07
2022-11-08T20:51:20.654Z,15.02
2022-11-08T20:53:48.896Z,15.06
2022-11-08T20:56:17.610Z,15.00
2022-11-08T20:58:45.957Z,15.03
2022-11-08T21:01:15.289Z,15.09
2022-11-08T21:03:45.614Z,15.12
2022-11-08T21:06:14.981Z,15.04
2022-11-08T21:09:00.826Z,15.14
2022-11-08T21:11:32.130Z,15.03
2022-11-08T21:13:59.446Z,15.09
2022-11-08T21:16:34.986Z,15.05
2022-11-08T21:19:07.353Z,15.11
2022-11-08T21:21:34.668Z,15.06
2022-11-08T21:24:03.814Z,15.02
2022-11-08T21:26:36.230Z,15.05
2022-11-08T21:29:03.984Z,15.05
2022-11-08T21:31:31.334Z,15.04
2022-11-08T21:33:59.105Z,15.07
2022-11-08T21:36:28.960Z,15.10
2022-11-08T21:38:56.308Z,15.10
2022-11-08T21:41:23.639Z,15.12
2022-11-08T21:43:50.952Z,15.02
2022-11-08T21:46:20.277Z,15.05
2022-11-08T21:48:48.193Z,15.05
2022-11-08T21:51:16.076Z,15.12
2022-11-08T21:53:53.703Z,15.20
2022-11-08T21:56:22.163Z,15.15
2022-11-08T21:58:49.537Z,15.21
2022-11-08T22:01:17.549Z,15.10
2022-11-08T22:03:44.980Z,15.13
2022-11-08T22:06:12.505Z,15.12
2022-11-08T22:08:39.863Z,15.15
2022-11-08T22:11:08.565Z,15.14
2022-11-08T22:13:35.975Z,15.16
2022-11-08T22:16:03.584Z,15.06
2022-11-08T22:18:50.774Z,15.11
2022-11-08T22:21:35.884Z,15.14
2022-11-08T22:24:03.287Z,15.09
2022-11-08T22:26:31.976Z,15.06
2022-11-08T22:28:59.518Z,15.03
2022-11-08T22:31:27.241Z,15.07
2022-11-08T22:33:54.684Z,15.05
2022-11-08T22:36:22.035Z,15.07
2022-11-08T22:38:49.412Z,15.13
2022-11-08T22:41:17.777Z,15.16
2022-11-08T22:43:46.980Z,15.12
2022-11-08T22:46:15.079Z,15.09
2022-11-08T22:48:44.688Z,15.08
2022-11-08T22:51:12.244Z,15.09
2022-11-08T22:53:40.295Z,15.08
2022-11-08T22:56:11.283Z,15.02
2022-11-08T22:58:39.219Z,15.07
2022-11-08T23:01:08.071Z,15.07
2022-11-08T23:03:35.413Z,15.02
2022-11-08T23:06:02.872Z,15.09
2022-11-08T23:08:30.654Z,15.10
2022-11-08T23:11:13.782Z,15.10
2022-11-08T23:13:58.977Z,15.10
2022-11-08T23:16:35.106Z,15.04
2022-11-08T23:19:21.766Z,15.03
2022-11-08T23:22:05.697Z,15.08
2022-11-08T23:24:33.512Z,14.97
2022-11-08T23:27:19.259Z,15.03
2022-11-08T23:30:04.033Z,15.03
2022-11-08T23:32:32.771Z,15.02
2022-11-08T23:35:00.127Z,15.10
2022-11-08T23:37:27.723Z,15.11
2022-11-08T23:40:12.447Z,15.06
2022-11-08T23:42:57.874Z,15.00
2022-11-08T23:45:25.319Z,15.04
2022-11-08T23:47:54.119Z,15.10
2022-11-08T23:50:21.779Z,15.08
2022-11-08T23:52:49.216Z,15.03
2022-11-08T23:55:16.836Z,14.95
2022-11-08T23:57:44.317Z,15.01
